Latest Weather Observations for Coonawarra

IDS60801

Issued at 9:31 am CST Wednesday 4 May 2016 (issued every 30 minutes, with the page automatically refreshed every 10 minutes)

About weather observations | Map of weather stations | Latest weather observations for SA | Other Formats
Station Details ID: 026091 Name: COONAWARRA Lat: -37.29 Lon: 140.83 Height: 57.0 m
Data from the previous 72 hours. | See also: Recent months at Coonawarra
Date/Time
CST
Temp
°C
App
Temp
°C
Dew
Point
Rel
Hum
%
Delta-T
°C
Wind Press
QNH
hPa
Press
MSL
hPa
Rain
since 9 am
mm
Dir
 
Spd
km/h
Gust
km/h
Spd
kts
Gust
kts
04/09:30am 13.1 9.8 9.6 79 1.8 N 17 26 9 14 1015.2 1015.2 0.0
04/09:00am 11.2 7.7 8.6 84 1.3 N 17 20 9 11 1015.2 1015.2 4.8
04/08:30am 10.7 7.4 8.0 83 1.3 N 15 22 8 12 1015.2 1015.2 4.8
04/08:00am 9.7 6.2 7.4 85 1.1 N 15 19 8 10 1014.9 1014.9 4.8
04/07:30am 8.5 5.3 6.8 89 0.8 N 13 20 7 11 1014.4 1014.4 4.8
04/07:00am 8.2 5.0 6.7 90 0.7 N 13 17 7 9 1014.0 1014.0 4.8
04/06:30am 8.3 5.4 6.3 87 0.9 NNW 11 15 6 8 1013.6 1013.6 4.8
04/06:00am 8.4 5.5 6.5 88 0.9 N 11 15 6 8 1013.2 1013.2 4.8
04/05:30am 7.6 4.6 5.8 88 0.8 N 11 13 6 7 1013.0 1013.0 4.8
04/05:00am 7.4 4.7 5.8 90 0.7 N 9 11 5 6 1012.7 1012.7 4.8
04/04:30am 7.5 4.4 5.5 87 0.9 N 11 15 6 8 1012.4 1012.4 4.8
04/04:00am 6.5 3.3 4.9 89 0.7 N 11 13 6 7 1012.4 1012.4 4.8
04/03:30am 6.4 3.2 5.0 91 0.6 N 11 13 6 7 1012.1 1012.1 4.8
04/03:00am 7.0 3.5 5.4 89 0.7 NNW 13 17 7 9 1012.0 1012.0 4.8
04/02:30am 7.1 3.6 5.3 88 0.8 N 13 17 7 9 1011.8 1011.8 4.8
04/02:00am 6.9 3.4 5.6 91 0.6 N 13 15 7 8 1011.5 1011.5 4.8
04/01:30am 7.0 3.6 5.7 91 0.6 N 13 15 7 8 1011.4 1011.4 4.8
04/01:00am 7.0 4.7 5.7 91 0.6 NNW 7 9 4 5 1011.1 1011.1 4.6
04/12:30am 7.6 5.0 6.1 90 0.7 NW 9 13 5 7 1011.0 1011.0 4.6
04/12:00am 7.7 4.8 6.4 91 0.6 NW 11 13 6 7 1011.1 1011.1 4.6
 
Date/Time
CST
Temp
°C
App
Temp
°C
Dew
Point
Rel
Hum
%
Delta-T
°C
Wind Press
QNH
hPa
Press
MSL
hPa
Rain
since 9 am
mm
Dir
 
Spd
km/h
Gust
km/h
Spd
kts
Gust
kts
03/11:30pm 8.1 5.2 6.6 90 0.7 NNW 11 13 6 7 1010.8 1010.8 4.6
03/11:00pm 8.6 5.8 7.1 90 0.7 NW 11 13 6 7 1010.7 1010.7 4.6
03/10:30pm 10.1 6.2 7.2 82 1.4 W 17 24 9 13 1010.8 1010.8 4.6
03/10:00pm 9.7 6.6 7.4 85 1.1 WNW 13 17 7 9 1010.6 1010.6 4.6
03/09:30pm 9.6 7.0 7.9 89 0.8 NW 11 17 6 9 1010.3 1010.3 4.6
03/09:00pm 9.5 6.9 7.6 88 0.9 NNW 11 15 6 8 1009.7 1009.7 4.6
03/08:30pm 10.0 7.0 7.7 86 1.1 NW 13 19 7 10 1009.4 1009.4 4.6
03/08:00pm 10.4 6.6 7.7 83 1.3 WNW 17 22 9 12 1009.1 1009.1 4.6
03/07:30pm 10.7 8.2 8.3 85 1.2 NW 11 17 6 9 1008.4 1008.4 4.4
03/07:00pm 10.9 7.7 8.3 84 1.3 WNW 15 20 8 11 1008.0 1008.0 4.4
03/06:30pm 11.2 8.7 8.1 81 1.5 WNW 11 13 6 7 1007.4 1007.4 4.2
03/06:00pm 11.9 8.2 7.8 76 2.0 WNW 17 24 9 13 1006.8 1006.8 4.2
03/05:30pm 12.3 7.3 8.1 75 2.1 W 24 37 13 20 1006.4 1006.4 4.2
03/05:00pm 13.5 10.8 7.2 65 3.1 WNW 11 17 6 9 1005.7 1005.7 3.8
03/04:30pm 14.0 10.5 7.1 63 3.4 W 15 22 8 12 1005.2 1005.3 3.8
03/04:00pm 14.2 9.2 6.6 60 3.7 WNW 22 32 12 17 1004.6 1004.7 3.8
03/03:30pm 14.0 8.5 7.5 65 3.2 WSW 26 39 14 21 1004.2 1004.3 3.8
03/03:00pm 14.9 8.3 6.0 55 4.3 W 30 43 16 23 1003.8 1003.9 3.8
03/02:30pm 14.8 9.8 8.1 64 3.4 W 24 37 13 20 1003.3 1003.3 3.8
03/02:00pm 14.1 8.9 9.0 71 2.6 W 26 41 14 22 1003.3 1003.3 3.8
03/01:31pm 15.4 10.0 9.4 67 3.1 W 28 46 15 25 1002.7 1002.7 3.8
03/01:30pm 15.4 10.4 9.4 67 3.1 W 26 46 14 25 1002.7 1002.7 3.8
03/01:00pm 15.2 9.4 9.6 69 2.9 W 30 43 16 23 1002.5 1002.5 3.8
03/12:30pm 14.6 9.2 11.0 79 1.9 W 30 44 16 24 1002.6 1002.6 3.8
03/12:01pm 13.3 7.7 11.4 88 1.0 W 32 50 17 27 1002.4 1002.4 3.8
03/12:00pm 13.1 7.3 11.4 89 0.9 W 33 50 18 27 1002.4 1002.4 3.8
03/11:37am 15.0 8.9 11.7 80 1.8 W 35 54 19 29 1002.1 1002.1 3.2
03/11:30am 14.7 8.1 11.2 79 1.9 W 37 54 20 29 1002.1 1002.1 3.2
03/11:00am 15.7 9.3 12.1 79 2.0 WNW 37 56 20 30 1001.5 1001.5 3.0
03/10:30am 14.8 9.1 13.0 89 1.0 WNW 35 54 19 29 1001.3 1001.3 3.0
03/10:00am 15.0 9.6 12.7 86 1.3 WNW 33 56 18 30 1000.7 1000.7 2.6
03/09:42am 15.0 10.6 14.1 94 0.5 WNW 30 50 16 27 1000.6 1000.6 2.2
03/09:30am 15.3 10.8 13.9 91 0.8 NW 30 41 16 22 999.9 999.9 0.2
03/09:00am 15.0 10.9 13.9 93 0.6 NNW 28 41 15 22 1000.2 1000.2 8.2
03/08:36am 14.7 10.6 13.8 94 0.5 NNW 28 46 15 25 1000.2 1000.2 8.2
03/08:30am 14.6 11.0 14.1 97 0.3 NW 26 41 14 22 1000.3 1000.3 8.2
03/08:00am 14.5 9.6 13.8 96 0.4 NNW 32 46 17 25 1000.4 1000.4 2.4
03/07:30am 14.5 9.0 13.6 94 0.5 NNW 35 54 19 29 999.7 999.7 1.4
03/07:07am 13.9 8.8 13.0 94 0.5 NNW 32 50 17 27 999.8 999.8 1.2
03/07:00am 13.6 8.2 12.9 95 0.4 NNW 33 50 18 27 999.8 999.8 1.2
03/06:30am 13.6 8.2 12.3 92 0.7 NNW 32 44 17 24 999.7 999.7 0.4
03/06:02am 13.7 7.7 12.2 91 0.8 NNW 35 56 19 30 1000.0 1000.0 0.2
03/06:00am 13.7 7.7 12.2 91 0.8 NNW 35 50 19 27 1000.0 1000.0 0.2
03/05:30am 14.0 8.5 12.0 88 1.1 NNW 32 48 17 26 1000.2 1000.2 0.2
03/05:09am 14.2 8.7 11.8 85 1.3 NNW 32 50 17 27 1000.6 1000.6 0.2
03/05:00am 14.2 8.5 11.8 85 1.3 N 33 46 18 25 1000.6 1000.6 0.2
03/04:30am 14.6 9.5 11.8 83 1.5 NNW 30 43 16 23 1000.6 1000.6 0.2
03/04:00am 14.2 8.6 11.6 84 1.4 NNW 32 48 17 26 1000.6 1000.6 0.2
03/03:30am 14.1 8.4 11.7 85 1.3 NNW 33 46 18 25 1001.1 1001.1 0.2
03/03:00am 14.5 9.0 11.9 84 1.4 NNW 32 46 17 25 1001.3 1001.3 0.2
03/02:30am 14.6 9.9 12.0 84 1.4 NNW 28 39 15 21 1001.9 1001.9 0.2
03/02:00am 14.8 9.3 11.7 82 1.7 NNW 32 46 17 25 1002.5 1002.5 0.2
03/01:30am 14.7 9.5 11.7 82 1.6 NNW 30 43 16 23 1002.9 1002.9 0.2
03/01:00am 14.8 9.3 11.9 83 1.6 NNW 32 43 17 23 1003.1 1003.1 0.2
03/12:30am 14.6 9.1 12.0 84 1.4 NNW 32 44 17 24 1003.6 1003.6 0.2
03/12:00am 14.1 9.2 12.5 90 0.9 NNW 30 43 16 23 1003.9 1004.0 0.2
 
Date/Time
CST
Temp
°C
App
Temp
°C
Dew
Point
Rel
Hum
%
Delta-T
°C
Wind Press
QNH
hPa
Press
MSL
hPa
Rain
since 9 am
mm
Dir
 
Spd
km/h
Gust
km/h
Spd
kts
Gust
kts
02/11:30pm 13.9 9.2 12.1 89 1.0 NNW 28 39 15 21 1004.6 1004.7 0.2
02/11:00pm 14.2 8.4 12.6 90 0.9 NNW 35 54 19 29 1004.7 1004.8 0.2
02/10:57pm 14.3 8.4 12.5 89 1.0 NNW 35 54 19 29 1004.7 1004.8 0.2
02/10:30pm 14.4 8.8 11.4 82 1.6 N 32 48 17 26 1005.1 1005.2 0.2
02/10:00pm 14.6 9.4 11.6 82 1.6 NNW 30 41 16 22 1005.6 1005.6 0.2
02/09:30pm 14.8 10.0 11.7 82 1.7 NNW 28 43 15 23 1006.1 1006.1 0.2
02/09:00pm 14.6 10.6 11.8 83 1.5 NNW 24 35 13 19 1006.4 1006.4 0.2
02/08:30pm 15.3 10.0 11.2 76 2.2 NNW 30 43 16 23 1006.0 1006.0 0.2
02/08:00pm 15.0 10.4 10.9 76 2.2 NNW 26 37 14 20 1006.2 1006.2 0.2
02/07:30pm 14.9 10.1 10.3 74 2.4 NNW 26 35 14 19 1006.7 1006.7 0.2
02/07:00pm 15.1 10.4 10.6 74 2.4 NNW 26 35 14 19 1006.8 1006.8 0.2
02/06:30pm 15.2 10.7 10.1 71 2.7 NNW 24 35 13 19 1007.0 1007.0 0.2
02/06:00pm 15.7 10.4 10.0 69 3.0 NW 28 37 15 20 1007.0 1007.0 0.2
02/05:30pm 15.8 10.3 10.7 71 2.7 NW 30 43 16 23 1006.9 1006.9 0.2
02/05:09pm 16.7 10.6 9.9 64 3.6 NNW 32 52 17 28 1006.5 1006.5 0.2
02/05:00pm 16.6 11.0 10.2 66 3.4 NNW 30 41 16 22 1006.4 1006.4 0.2
02/04:30pm 17.3 10.6 9.5 60 4.1 NNW 35 57 19 31 1006.8 1006.8 0.2
02/04:22pm 17.4 11.0 9.4 59 4.2 NW 33 57 18 31 1006.8 1006.8 0.2
02/04:00pm 17.6 11.2 9.4 58 4.3 NNW 33 44 18 24 1006.8 1006.8 0.2
02/03:30pm 17.6 11.6 8.5 55 4.7 NW 30 46 16 25 1007.0 1007.0 0.2
02/03:20pm 17.8 11.8 8.8 55 4.7 NW 30 48 16 26 1007.1 1007.1 0.2
02/03:00pm 18.2 11.6 7.6 50 5.4 NW 32 46 17 25 1007.2 1007.2 0.2
02/02:47pm 18.7 11.5 7.5 48 5.7 NW 35 54 19 29 1007.3 1007.3 0.2
02/02:30pm 18.2 11.1 7.9 51 5.3 NW 35 52 19 28 1007.4 1007.4 0.2
02/02:02pm 17.9 10.8 7.9 52 5.1 NW 35 54 19 29 1007.7 1007.7 0.2
02/02:00pm 18.0 11.0 8.3 53 5.0 NW 35 52 19 28 1007.8 1007.8 0.2
02/01:30pm 18.3 10.6 8.5 52 5.1 NW 39 61 21 33 1008.1 1008.1 0.0
02/01:10pm 17.0 10.6 8.7 58 4.3 NW 32 50 17 27 1008.3 1008.3 0.0
02/01:00pm 17.1 11.6 10.4 64 3.6 NW 30 43 16 23 1008.5 1008.5 0.0
02/12:30pm 17.4 9.9 8.0 54 4.8 NW 37 59 20 32 1008.8 1008.8 0.0
02/12:07pm 17.6 11.2 8.7 56 4.6 NNW 32 54 17 29 1009.1 1009.1 0.0
02/12:00pm 17.0 11.5 9.1 59 4.1 NNW 28 43 15 23 1009.1 1009.1 0.0
02/11:36am 16.3 9.6 8.3 59 4.1 NNW 33 52 18 28 1009.7 1009.7 0.0
02/11:30am 16.5 10.1 8.5 59 4.1 NNW 32 48 17 26 1009.8 1009.8 0.0
02/11:24am 16.1 9.9 8.0 58 4.1 NNW 30 48 16 26 1009.9 1009.9 0.0
02/11:00am 16.0 8.9 8.1 59 4.0 NNW 35 48 19 26 1010.0 1010.0 0.0
02/10:30am 15.8 8.7 7.9 59 4.0 NNW 35 54 19 29 1010.5 1010.5 0.0
02/10:28am 15.7 8.5 7.7 59 4.0 NNW 35 54 19 29 1010.5 1010.5 0.0
02/10:00am 15.0 8.5 8.0 63 3.5 NNW 32 48 17 26 1010.6 1010.6 0.0
02/09:30am 13.9 7.7 7.9 67 3.0 NNW 30 44 16 24 1010.9 1010.9 0.0
02/09:00am 13.5 7.6 7.4 66 3.0 NNW 28 41 15 22 1011.2 1011.2 0.6
02/08:39am 12.4 6.5 7.5 72 2.4 NNW 28 46 15 25 1011.2 1011.2 0.6
02/08:30am 12.0 6.5 7.7 75 2.1 NNW 26 35 14 19 1011.6 1011.6 0.6
02/08:00am 11.1 5.8 6.9 75 2.0 NNW 24 39 13 21 1011.7 1011.7 0.6
02/07:30am 10.4 6.1 6.8 78 1.7 NNW 19 26 10 14 1011.7 1011.7 0.6
02/07:00am 9.3 4.7 6.3 81 1.4 NNW 20 30 11 16 1011.9 1011.9 0.6
02/06:30am 9.5 5.5 6.5 81 1.4 NNW 17 20 9 11 1011.8 1011.8 0.6
02/06:00am 9.6 5.2 6.6 81 1.4 NNW 19 26 10 14 1012.0 1012.0 0.6
02/05:30am 10.2 5.9 6.8 79 1.6 NNW 19 24 10 13 1012.2 1012.2 0.6
02/05:00am 10.2 6.0 7.3 82 1.4 N 19 24 10 13 1012.3 1012.3 0.6
02/04:30am 10.3 6.2 7.8 84 1.2 N 19 28 10 15 1012.6 1012.6 0.6
02/04:00am 10.2 6.6 8.4 89 0.9 N 17 22 9 12 1012.8 1012.8 0.6
02/03:30am 9.9 6.3 8.3 90 0.8 N 17 24 9 13 1013.0 1013.0 0.6
02/03:00am 9.9 5.7 8.3 90 0.8 N 20 37 11 20 1013.4 1013.4 0.6
02/02:30am 8.8 5.8 7.8 93 0.5 N 13 20 7 11 1013.6 1013.6 0.6
02/02:00am 9.6 5.6 6.8 83 1.3 NW 17 22 9 12 1014.5 1014.5 0.2
02/01:30am 9.7 5.3 6.5 80 1.5 N 19 24 10 13 1014.2 1014.2 0.2
02/01:00am 9.5 5.5 6.7 83 1.3 N 17 22 9 12 1014.5 1014.5 0.2
02/12:30am 9.9 6.0 6.9 81 1.4 N 17 24 9 13 1014.6 1014.6 0.2
02/12:00am 9.0 5.8 6.9 87 1.0 NNW 13 19 7 10 1015.3 1015.3 0.2
 
Date/Time
CST
Temp
°C
App
Temp
°C
Dew
Point
Rel
Hum
%
Delta-T
°C
Wind Press
QNH
hPa
Press
MSL
hPa
Rain
since 9 am
mm
Dir
 
Spd
km/h
Gust
km/h
Spd
kts
Gust
kts
01/11:30pm 8.9 5.3 6.8 87 1.0 N 15 20 8 11 1015.1 1015.1 0.2
01/11:00pm 8.8 5.1 6.4 85 1.1 N 15 20 8 11 1015.6 1015.6 0.2
01/10:30pm 8.9 5.6 6.3 84 1.2 NNW 13 17 7 9 1015.7 1015.7 0.2
01/10:00pm 8.9 5.1 5.8 81 1.4 N 15 19 8 10 1016.1 1016.1 0.2
01/09:30pm 8.9 5.4 5.6 80 1.5 N 13 15 7 8 1016.3 1016.3 0.2
01/09:00pm 8.5 5.5 6.1 85 1.1 N 11 13 6 7 1016.2 1016.2 0.2
01/08:30pm 8.8 6.2 6.2 84 1.2 N 9 11 5 6 1016.2 1016.2 0.2
01/08:00pm 9.6 6.2 6.1 79 1.6 N 13 17 7 9 1016.3 1016.3 0.2
01/07:30pm 9.1 6.1 6.1 81 1.4 NNW 11 13 6 7 1016.2 1016.2 0.2
01/07:00pm 9.9 6.9 6.0 77 1.8 NNW 11 13 6 7 1016.1 1016.1 0.2
01/06:30pm 10.0 7.4 5.9 75 1.9 NW 9 13 5 7 1016.0 1016.0 0.2
01/06:00pm 11.0 7.8 5.3 68 2.6 WNW 11 13 6 7 1015.8 1015.8 0.2
01/05:30pm 12.6 9.0 5.0 60 3.5 W 13 17 7 9 1015.5 1015.5 0.2
01/05:00pm 13.9 9.3 5.7 57 3.9 W 19 28 10 15 1015.2 1015.2 0.2
01/04:30pm 13.7 8.7 4.6 54 4.2 W 20 26 11 14 1015.2 1015.2 0.2
01/04:00pm 15.6 10.7 4.2 46 5.3 WSW 19 30 10 16 1015.0 1015.0 0.2
01/03:30pm 14.5 9.0 4.1 49 4.8 WSW 22 35 12 19 1014.9 1014.9 0.2
01/03:00pm 15.2 9.7 3.9 47 5.2 WSW 22 30 12 16 1014.4 1014.4 0.2
01/02:30pm 16.3 9.7 4.4 45 5.6 WSW 28 41 15 22 1014.2 1014.2 0.0
01/02:00pm 16.2 9.5 3.4 42 5.9 WSW 28 41 15 22 1013.9 1013.9 0.0
01/01:30pm 16.0 8.7 2.5 40 6.1 WSW 30 43 16 23 1013.7 1013.7 0.0
01/01:00pm 16.1 8.6 3.5 43 5.8 WSW 32 48 17 26 1013.4 1013.4 0.0
01/12:30pm 15.2 7.8 3.9 47 5.2 WSW 32 44 17 24 1013.4 1013.4 0.0
01/12:14pm 15.6 8.9 3.4 44 5.6 WSW 28 46 15 25 1013.4 1013.4 0.0
01/12:00pm 15.2 9.0 4.2 48 5.1 WSW 26 44 14 24 1013.3 1013.3 0.0
01/11:30am 14.7 9.2 5.7 55 4.3 WSW 24 35 13 19 1013.4 1013.4 0.0
01/11:00am 14.1 9.4 7.9 66 3.1 WSW 22 32 12 17 1013.6 1013.6 0.0
01/10:30am 13.2 8.7 8.6 73 2.3 WSW 22 37 12 20 1013.5 1013.5 0.0
01/10:00am 12.4 7.7 7.7 73 2.3 WNW 22 28 12 15 1012.7 1012.7 0.0

Other Formats:

Comma delimited format used in spreadsheet applications
http://www.bom.gov.au/fwo/IDS60801/IDS60801.94817.axf

JavaScript Object Notation format (JSON) in row-major order
http://www.bom.gov.au/fwo/IDS60801/IDS60801.94817.json